createdAt,value
2018-03-17T00:00:05.569Z,7.50
2018-03-17T00:02:32.962Z,7.20
2018-03-17T00:05:00.475Z,7.25
2018-03-17T00:07:27.858Z,7.12
2018-03-17T00:09:55.281Z,7.21
2018-03-17T00:12:22.665Z,7.50
2018-03-17T00:14:50.096Z,7.30
2018-03-17T00:17:17.467Z,7.60
2018-03-17T00:19:44.877Z,7.47
2018-03-17T00:22:12.962Z,7.54
2018-03-17T00:24:40.356Z,7.34
2018-03-17T00:27:07.740Z,7.00
2018-03-17T00:29:35.158Z,7.00
2018-03-17T00:32:02.542Z,7.03
2018-03-17T00:34:29.945Z,6.86
2018-03-17T00:36:57.397Z,7.04
2018-03-17T00:39:24.789Z,7.18
2018-03-17T00:41:52.173Z,7.04
2018-03-17T00:44:19.581Z,6.96
2018-03-17T00:46:47.024Z,6.76
2018-03-17T00:49:14.423Z,6.80
2018-03-17T00:51:42.889Z,6.66
2018-03-17T00:54:10.361Z,6.73
2018-03-17T00:56:37.764Z,6.81
2018-03-17T00:59:05.267Z,7.17
2018-03-17T01:01:32.673Z,6.85
2018-03-17T01:04:00.155Z,6.79
2018-03-17T01:06:27.500Z,7.09
2018-03-17T01:08:54.952Z,6.84
2018-03-17T01:11:22.350Z,6.71
2018-03-17T01:13:49.734Z,6.82
2018-03-17T01:16:17.136Z,6.96
2018-03-17T01:18:44.525Z,6.97
2018-03-17T01:21:12.990Z,6.64
2018-03-17T01:23:40.372Z,6.62
2018-03-17T01:26:07.821Z,6.95
2018-03-17T01:28:35.224Z,6.76
2018-03-17T01:31:02.616Z,6.72
2018-03-17T01:33:30.001Z,6.76
2018-03-17T01:35:57.401Z,6.66
2018-03-17T01:38:24.778Z,6.52
2018-03-17T01:40:52.165Z,6.66
2018-03-17T01:43:19.553Z,7.14
2018-03-17T01:45:46.944Z,6.84
2018-03-17T01:48:14.469Z,6.90
2018-03-17T01:50:42.022Z,6.74
2018-03-17T01:53:09.614Z,6.90
2018-03-17T01:55:36.996Z,6.76
2018-03-17T01:58:04.497Z,6.41
2018-03-17T02:00:31.913Z,6.63
2018-03-17T02:02:59.311Z,6.75
2018-03-17T02:05:26.698Z,6.83
2018-03-17T02:07:54.101Z,6.80
2018-03-17T02:10:21.529Z,6.51
2018-03-17T02:12:48.920Z,6.43
2018-03-17T02:15:16.368Z,6.35
2018-03-17T02:17:43.814Z,6.44
2018-03-17T02:20:11.231Z,6.09
2018-03-17T02:22:38.710Z,6.38
2018-03-17T02:25:06.118Z,6.41
2018-03-17T02:27:33.535Z,6.51
2018-03-17T02:30:00.979Z,6.69
2018-03-17T02:32:28.412Z,6.40
2018-03-17T02:34:55.819Z,6.50
2018-03-17T02:37:23.363Z,6.65
2018-03-17T02:39:50.814Z,6.35
2018-03-17T02:42:18.208Z,6.33
2018-03-17T02:44:45.613Z,6.41
2018-03-17T02:47:13.408Z,6.55
2018-03-17T02:49:40.832Z,6.51
2018-03-17T02:52:08.341Z,6.24
2018-03-17T02:54:35.847Z,6.51
2018-03-17T02:57:05.997Z,6.61
2018-03-17T02:59:35.762Z,6.58
2018-03-17T03:02:03.210Z,6.48
2018-03-17T03:04:30.613Z,6.46
2018-03-17T03:06:58.022Z,6.51
2018-03-17T03:09:25.429Z,6.39
2018-03-17T03:11:52.851Z,6.46
2018-03-17T03:14:20.253Z,6.51
2018-03-17T03:16:49.878Z,6.43
2018-03-17T03:19:17.825Z,6.50
2018-03-17T03:21:45.221Z,6.54
2018-03-17T03:24:13.530Z,6.64
2018-03-17T03:26:41.007Z,6.37
2018-03-17T03:29:08.408Z,5.99
2018-03-17T03:31:35.792Z,6.18
2018-03-17T03:34:03.221Z,6.24
2018-03-17T03:36:30.634Z,6.60
2018-03-17T03:38:58.249Z,5.91
2018-03-17T03:41:25.685Z,5.68
2018-03-17T03:43:53.085Z,5.96
2018-03-17T03:46:20.468Z,6.16
2018-03-17T03:48:47.868Z,6.10
2018-03-17T03:51:17.854Z,6.15
2018-03-17T03:53:45.343Z,6.18
2018-03-17T03:56:13.710Z,6.04
2018-03-17T03:58:41.101Z,6.38
2018-03-17T04:01:08.485Z,6.16
2018-03-17T04:03:36.966Z,5.87
2018-03-17T04:06:04.396Z,6.29
2018-03-17T04:08:31.801Z,6.45
2018-03-17T04:10:59.188Z,6.37
2018-03-17T04:13:26.596Z,6.20
2018-03-17T04:15:53.972Z,6.09
2018-03-17T04:18:21.416Z,6.03
2018-03-17T04:20:48.803Z,5.86
2018-03-17T04:23:16.193Z,5.94
2018-03-17T04:25:45.226Z,6.01
2018-03-17T04:28:12.629Z,6.02
2018-03-17T04:30:40.024Z,6.05
2018-03-17T04:33:08.344Z,6.18
2018-03-17T04:35:35.761Z,6.18
2018-03-17T04:38:03.173Z,6.34
2018-03-17T04:40:30.571Z,6.24
2018-03-17T04:42:57.966Z,5.83
2018-03-17T04:45:25.364Z,5.81
2018-03-17T04:47:52.889Z,5.97
2018-03-17T04:50:20.333Z,5.93
2018-03-17T04:52:47.708Z,5.81
2018-03-17T04:55:18.452Z,5.90
2018-03-17T04:57:45.849Z,6.00
2018-03-17T05:00:13.237Z,5.85
2018-03-17T05:02:40.734Z,5.61
2018-03-17T05:05:08.131Z,5.69
2018-03-17T05:07:35.590Z,5.89
2018-03-17T05:10:02.981Z,5.81
2018-03-17T05:12:30.389Z,6.11
2018-03-17T05:14:57.804Z,5.48
2018-03-17T05:17:25.241Z,5.47
2018-03-17T05:19:52.638Z,5.85
2018-03-17T05:22:20.053Z,5.79
2018-03-17T05:24:47.437Z,5.81
2018-03-17T05:27:15.647Z,5.59
2018-03-17T05:29:43.024Z,5.47
2018-03-17T05:32:10.421Z,5.52
2018-03-17T05:34:37.830Z,5.59
2018-03-17T05:37:05.227Z,5.45
2018-03-17T05:39:32.713Z,5.26
2018-03-17T05:42:00.240Z,5.64
2018-03-17T05:44:27.669Z,5.67
2018-03-17T05:46:55.084Z,5.60
2018-03-17T05:49:22.469Z,5.52
2018-03-17T05:51:49.865Z,5.62
2018-03-17T05:54:17.261Z,5.52
2018-03-17T05:56:44.737Z,5.73
2018-03-17T05:59:12.128Z,5.34
2018-03-17T06:01:39.521Z,5.36
2018-03-17T06:04:06.912Z,5.20
2018-03-17T06:06:35.338Z,5.28
2018-03-17T06:09:02.984Z,5.42
2018-03-17T06:11:30.376Z,5.39
2018-03-17T06:13:57.786Z,5.27
2018-03-17T06:16:25.168Z,5.47
2018-03-17T06:18:52.567Z,5.38
2018-03-17T06:21:19.960Z,5.52
2018-03-17T06:23:47.347Z,5.38
2018-03-17T06:26:14.724Z,5.50
2018-03-17T06:28:42.152Z,5.38
2018-03-17T06:31:09.538Z,5.21
2018-03-17T06:33:36.921Z,5.29
2018-03-17T06:36:04.327Z,5.73
2018-03-17T06:38:31.720Z,5.24
2018-03-17T06:40:59.149Z,5.66
2018-03-17T06:43:26.544Z,5.87
2018-03-17T06:45:53.950Z,5.66
2018-03-17T06:48:21.331Z,5.59
2018-03-17T06:50:48.765Z,5.16
2018-03-17T06:53:16.177Z,5.34
2018-03-17T06:55:45.189Z,5.35
2018-03-17T06:58:12.576Z,5.01
2018-03-17T07:00:39.979Z,5.45
2018-03-17T07:03:07.405Z,5.51
2018-03-17T07:05:34.793Z,5.38
2018-03-17T07:08:02.176Z,5.20
2018-03-17T07:10:30.573Z,5.21
2018-03-17T07:12:57.966Z,5.35
2018-03-17T07:15:25.347Z,5.21
2018-03-17T07:17:53.708Z,5.52
2018-03-17T07:20:21.423Z,5.47
2018-03-17T07:22:48.841Z,5.38
2018-03-17T07:25:16.259Z,5.21
2018-03-17T07:27:43.626Z,5.11
2018-03-17T07:30:11.007Z,5.30
2018-03-17T07:32:38.481Z,5.33
2018-03-17T07:35:05.872Z,5.08
2018-03-17T07:37:33.256Z,5.10
2018-03-17T07:40:00.641Z,5.56
2018-03-17T07:42:28.050Z,5.23
2018-03-17T07:44:55.422Z,5.49
2018-03-17T07:47:22.809Z,5.55
2018-03-17T07:49:50.232Z,5.48
2018-03-17T07:52:17.617Z,5.65
2018-03-17T07:54:44.997Z,5.85
2018-03-17T07:57:12.419Z,5.79
2018-03-17T07:59:39.794Z,5.55
2018-03-17T08:02:07.192Z,5.36
2018-03-17T08:04:34.582Z,5.38
2018-03-17T08:07:01.983Z,5.21
2018-03-17T08:09:29.382Z,5.68
2018-03-17T08:11:56.805Z,5.88
2018-03-17T08:14:24.259Z,5.61
2018-03-17T08:16:51.577Z,5.78
2018-03-17T08:19:19.322Z,5.84
2018-03-17T08:21:46.726Z,6.18
2018-03-17T08:24:19.169Z,6.09
2018-03-17T08:26:46.568Z,6.31
2018-03-17T08:29:13.977Z,6.13
2018-03-17T08:31:41.373Z,6.10
2018-03-17T08:34:08.796Z,5.95
2018-03-17T08:36:36.141Z,6.10
2018-03-17T08:39:03.541Z,5.77
2018-03-17T08:41:30.938Z,5.75
2018-03-17T08:43:58.340Z,6.00
2018-03-17T08:46:25.750Z,5.58
2018-03-17T08:48:53.145Z,6.05
2018-03-17T08:51:20.528Z,5.73
2018-03-17T08:53:47.960Z,5.42
2018-03-17T08:56:15.341Z,5.67
2018-03-17T08:58:42.777Z,5.90
2018-03-17T09:01:10.103Z,5.83
2018-03-17T09:03:37.509Z,5.87
2018-03-17T09:06:04.916Z,6.08
2018-03-17T09:08:32.398Z,5.94
2018-03-17T09:11:00.163Z,5.96
2018-03-17T09:13:27.541Z,6.06
2018-03-17T09:15:54.989Z,6.16
2018-03-17T09:18:22.491Z,6.10
2018-03-17T09:20:49.974Z,6.25
2018-03-17T09:23:17.364Z,6.35
2018-03-17T09:25:45.388Z,6.54
2018-03-17T09:28:12.794Z,6.63
2018-03-17T09:30:40.168Z,6.35
2018-03-17T09:33:07.555Z,6.04
2018-03-17T09:35:34.957Z,6.22
2018-03-17T09:38:02.363Z,6.03
2018-03-17T09:40:29.768Z,5.95
2018-03-17T09:42:57.177Z,6.07
2018-03-17T09:45:24.559Z,6.14
2018-03-17T09:47:52.048Z,6.15
2018-03-17T09:50:19.465Z,5.90
2018-03-17T09:52:46.865Z,6.24
2018-03-17T09:55:14.247Z,6.16
2018-03-17T09:57:41.681Z,6.12
2018-03-17T10:00:09.082Z,6.16
2018-03-17T10:02:36.476Z,5.93
2018-03-17T10:05:03.864Z,5.98
2018-03-17T10:07:31.257Z,6.14
2018-03-17T10:09:58.649Z,6.37
2018-03-17T10:12:26.063Z,6.18
2018-03-17T10:14:53.452Z,6.08
2018-03-17T10:17:20.841Z,6.17
2018-03-17T10:19:48.237Z,5.75
2018-03-17T10:22:15.703Z,5.72
2018-03-17T10:24:43.097Z,5.68
2018-03-17T10:27:10.472Z,5.38
2018-03-17T10:29:37.877Z,5.70
2018-03-17T10:32:05.280Z,5.69
2018-03-17T10:34:32.694Z,5.83
2018-03-17T10:37:00.073Z,5.82
2018-03-17T10:39:27.482Z,5.82
2018-03-17T10:41:54.872Z,5.67
2018-03-17T10:44:22.281Z,5.90
2018-03-17T10:46:49.670Z,5.92
2018-03-17T10:49:17.132Z,6.10
2018-03-17T10:51:44.454Z,6.07
2018-03-17T10:54:11.837Z,5.73
2018-03-17T10:56:39.245Z,5.72
2018-03-17T10:59:07.511Z,5.79
2018-03-17T11:01:40.563Z,5.54
2018-03-17T11:04:08.164Z,5.80
2018-03-17T11:06:35.629Z,5.79
2018-03-17T11:09:03.026Z,5.65
2018-03-17T11:11:30.436Z,5.66
2018-03-17T11:13:57.826Z,5.83
2018-03-17T11:16:25.289Z,5.85
2018-03-17T11:18:52.670Z,5.72
2018-03-17T11:21:20.234Z,5.90
2018-03-17T11:23:47.624Z,5.98
2018-03-17T11:26:15.003Z,5.87
2018-03-17T11:28:42.397Z,5.60
2018-03-17T11:31:09.914Z,5.69
2018-03-17T11:33:37.309Z,6.03
2018-03-17T11:36:04.712Z,5.77
2018-03-17T11:38:32.184Z,5.80
2018-03-17T11:40:59.550Z,5.96
2018-03-17T11:43:26.943Z,6.12
2018-03-17T11:45:54.398Z,5.90
2018-03-17T11:48:22.108Z,5.80
2018-03-17T11:50:49.571Z,5.95
2018-03-17T11:53:16.953Z,6.18
2018-03-17T11:55:44.335Z,5.76
2018-03-17T11:58:11.761Z,5.80
2018-03-17T12:00:39.161Z,5.99
2018-03-17T12:03:06.644Z,6.22
2018-03-17T12:05:35.020Z,5.62
2018-03-17T12:08:02.422Z,5.87
2018-03-17T12:10:29.823Z,5.94
2018-03-17T12:12:57.207Z,6.12
2018-03-17T12:15:24.663Z,5.80
2018-03-17T12:17:52.106Z,5.65
2018-03-17T12:20:19.498Z,5.72
2018-03-17T12:22:47.010Z,6.17
2018-03-17T12:25:14.409Z,6.01
2018-03-17T12:27:41.849Z,5.70
2018-03-17T12:30:09.328Z,5.67
2018-03-17T12:32:36.712Z,5.72
2018-03-17T12:35:04.128Z,6.07
2018-03-17T12:37:31.523Z,5.95
2018-03-17T12:39:58.905Z,5.94
2018-03-17T12:42:26.339Z,5.90
2018-03-17T12:44:53.824Z,5.54
2018-03-17T12:47:21.214Z,5.78
2018-03-17T12:49:52.197Z,5.62
2018-03-17T12:52:19.581Z,6.09
2018-03-17T12:54:47.216Z,5.99
2018-03-17T12:57:14.619Z,6.07
2018-03-17T12:59:42.139Z,6.14
2018-03-17T13:02:09.534Z,5.75
2018-03-17T13:04:36.953Z,5.50
2018-03-17T13:07:04.358Z,5.29
2018-03-17T13:09:31.761Z,5.59
2018-03-17T13:11:59.141Z,5.78
2018-03-17T13:14:26.613Z,5.67
2018-03-17T13:16:54.005Z,5.61
2018-03-17T13:19:30.191Z,5.38
2018-03-17T13:21:57.580Z,5.43
2018-03-17T13:24:25.001Z,5.62
2018-03-17T13:27:04.181Z,5.56
2018-03-17T13:29:31.601Z,5.53
2018-03-17T13:32:04.438Z,5.55
2018-03-17T13:34:40.157Z,5.56
2018-03-17T13:37:19.799Z,5.51
2018-03-17T13:39:47.214Z,5.59
2018-03-17T13:42:14.627Z,5.77
2018-03-17T13:44:42.162Z,5.81
2018-03-17T13:47:09.600Z,6.09
2018-03-17T13:49:36.978Z,5.89
2018-03-17T13:52:04.383Z,6.16
2018-03-17T13:54:31.810Z,5.53
2018-03-17T13:56:59.274Z,5.71
2018-03-17T13:59:26.666Z,5.49
2018-03-17T14:01:54.078Z,5.95
2018-03-17T14:04:21.498Z,6.04
2018-03-17T14:06:48.897Z,5.96
2018-03-17T14:09:16.852Z,6.17
2018-03-17T14:11:44.276Z,6.01
2018-03-17T14:14:11.659Z,5.45
2018-03-17T14:16:39.065Z,5.51
2018-03-17T14:19:06.513Z,5.50
2018-03-17T14:21:33.969Z,5.65
2018-03-17T14:24:01.344Z,5.47
2018-03-17T14:26:28.749Z,5.59
2018-03-17T14:28:56.142Z,5.75
2018-03-17T14:31:23.570Z,5.41
2018-03-17T14:33:51.206Z,5.39
2018-03-17T14:36:18.657Z,5.55
2018-03-17T14:38:47.000Z,5.38
2018-03-17T14:41:14.518Z,5.41
2018-03-17T14:43:41.906Z,5.47
2018-03-17T14:46:09.439Z,5.37
2018-03-17T14:48:36.861Z,5.02
2018-03-17T14:51:04.245Z,5.20
2018-03-17T14:53:31.647Z,5.22
2018-03-17T14:55:59.045Z,5.08
2018-03-17T14:58:26.553Z,5.10
2018-03-17T15:00:53.940Z,5.18
2018-03-17T15:03:21.326Z,5.07
2018-03-17T15:05:48.755Z,5.14
2018-03-17T15:08:16.135Z,5.04
2018-03-17T15:10:43.513Z,4.81
2018-03-17T15:13:10.926Z,4.93
2018-03-17T15:15:38.324Z,5.04
2018-03-17T15:18:05.788Z,4.93
2018-03-17T15:20:33.208Z,5.07
2018-03-17T15:23:00.650Z,4.96
2018-03-17T15:25:28.053Z,5.01
2018-03-17T15:27:55.555Z,4.97
2018-03-17T15:30:22.940Z,5.09
2018-03-17T15:32:50.352Z,5.08
2018-03-17T15:35:17.954Z,4.71
2018-03-17T15:37:46.336Z,4.60
2018-03-17T15:40:13.745Z,4.65
2018-03-17T15:42:41.120Z,4.56
2018-03-17T15:45:08.640Z,4.71
2018-03-17T15:47:36.032Z,4.60
2018-03-17T15:50:03.540Z,4.77
2018-03-17T15:52:30.926Z,4.75
2018-03-17T15:54:58.299Z,4.75
2018-03-17T15:57:25.844Z,4.95
2018-03-17T15:59:53.222Z,4.77
2018-03-17T16:02:20.635Z,4.67
2018-03-17T16:04:48.133Z,4.65
2018-03-17T16:07:15.538Z,4.20
2018-03-17T16:09:42.923Z,4.34
2018-03-17T16:14:44.102Z,4.34
2018-03-17T16:17:11.609Z,4.46
2018-03-17T16:19:38.980Z,4.31
2018-03-17T16:22:06.372Z,3.96
2018-03-17T16:24:33.756Z,4.39
2018-03-17T16:27:01.214Z,4.19
2018-03-17T16:29:28.618Z,4.14
2018-03-17T16:31:56.097Z,4.07
2018-03-17T16:34:23.510Z,4.35
2018-03-17T16:36:50.903Z,3.82
2018-03-17T16:39:18.319Z,4.01
2018-03-17T16:41:45.689Z,4.16
2018-03-17T16:44:13.075Z,3.94
2018-03-17T16:46:40.448Z,4.04
2018-03-17T16:49:07.924Z,4.19
2018-03-17T16:51:35.394Z,4.35
2018-03-17T16:54:02.803Z,4.07
2018-03-17T16:56:30.212Z,4.05
2018-03-17T16:58:57.606Z,4.21
2018-03-17T17:01:25.009Z,3.84
2018-03-17T17:03:52.502Z,3.92
2018-03-17T17:06:19.976Z,3.81
2018-03-17T17:08:47.633Z,3.94
2018-03-17T17:11:15.049Z,4.40
2018-03-17T17:13:42.442Z,4.01
2018-03-17T17:16:09.824Z,3.91
2018-03-17T17:18:37.663Z,3.80
2018-03-17T17:21:05.163Z,3.84
2018-03-17T17:23:32.553Z,3.85
2018-03-17T17:25:59.946Z,4.17
2018-03-17T17:28:27.470Z,3.99
2018-03-17T17:30:55.886Z,3.82
2018-03-17T17:33:23.269Z,3.60
2018-03-17T17:35:50.652Z,3.55
2018-03-17T17:38:18.041Z,3.33
2018-03-17T17:40:45.520Z,3.42
2018-03-17T17:43:12.913Z,3.66
2018-03-17T17:45:40.297Z,3.51
2018-03-17T17:48:07.684Z,3.60
2018-03-17T17:50:35.088Z,3.61
2018-03-17T17:55:52.370Z,3.90
2018-03-17T17:58:20.013Z,3.90
2018-03-17T18:00:47.793Z,3.88
2018-03-17T18:03:15.226Z,4.02
2018-03-17T18:05:42.655Z,3.69
2018-03-17T18:08:10.075Z,3.88
2018-03-17T18:10:37.456Z,3.69
2018-03-17T18:13:04.879Z,3.71
2018-03-17T18:15:32.254Z,3.73
2018-03-17T18:17:59.662Z,3.85
2018-03-17T18:20:27.064Z,3.24
2018-03-17T18:22:54.479Z,3.76
2018-03-17T18:25:21.864Z,3.58
2018-03-17T18:27:49.286Z,3.65
2018-03-17T18:30:16.709Z,3.66
2018-03-17T18:32:44.206Z,3.48
2018-03-17T18:35:11.613Z,3.47
2018-03-17T18:37:39.045Z,3.38
2018-03-17T18:40:06.449Z,3.06
2018-03-17T18:42:33.855Z,3.35
2018-03-17T18:45:01.337Z,3.44
2018-03-17T18:47:29.500Z,3.58
2018-03-17T18:49:56.940Z,3.53
2018-03-17T18:52:24.327Z,3.55
2018-03-17T18:54:51.714Z,3.39
2018-03-17T18:57:19.136Z,3.30
2018-03-17T18:59:46.524Z,3.56
2018-03-17T19:02:13.915Z,3.76
2018-03-17T19:04:41.305Z,3.48
2018-03-17T19:07:08.879Z,3.36
2018-03-17T19:09:36.328Z,3.41
2018-03-17T19:12:03.700Z,3.62
2018-03-17T19:14:31.309Z,3.66
2018-03-17T19:16:58.727Z,3.59
2018-03-17T19:19:26.131Z,3.38
2018-03-17T19:21:53.523Z,3.48
2018-03-17T19:24:21.022Z,3.82
2018-03-17T19:26:48.736Z,3.40
2018-03-17T19:29:16.099Z,3.38
2018-03-17T19:31:43.485Z,3.26
2018-03-17T19:34:10.874Z,3.52
2018-03-17T19:36:38.278Z,3.80
2018-03-17T19:39:05.660Z,3.34
2018-03-17T19:41:33.056Z,3.48
2018-03-17T19:44:00.450Z,3.16
2018-03-17T19:46:27.977Z,3.50
2018-03-17T19:48:55.348Z,3.52
2018-03-17T19:51:22.785Z,3.32
2018-03-17T19:53:50.183Z,3.31
2018-03-17T19:56:18.359Z,3.41
2018-03-17T19:58:45.723Z,3.47
2018-03-17T20:01:13.132Z,3.32
2018-03-17T20:03:40.518Z,3.43
2018-03-17T20:06:07.951Z,3.61
2018-03-17T20:08:35.336Z,3.20
2018-03-17T20:11:02.740Z,3.55
2018-03-17T20:13:30.161Z,3.71
2018-03-17T20:15:57.547Z,3.62
2018-03-17T20:18:24.946Z,3.44
2018-03-17T20:20:52.342Z,3.48
2018-03-17T20:23:19.740Z,3.36
2018-03-17T20:25:47.289Z,3.32
2018-03-17T20:28:14.698Z,3.48
2018-03-17T20:30:42.099Z,3.41
2018-03-17T20:33:09.497Z,3.49
2018-03-17T20:35:36.868Z,3.34
2018-03-17T20:38:04.272Z,3.27
2018-03-17T20:40:31.671Z,3.12
2018-03-17T20:43:01.011Z,3.35
2018-03-17T20:45:28.414Z,3.22
2018-03-17T20:47:55.801Z,3.16
2018-03-17T20:50:24.004Z,3.41
2018-03-17T20:52:53.491Z,3.35
2018-03-17T20:55:20.906Z,3.60
2018-03-17T20:57:48.720Z,3.45
2018-03-17T21:00:16.437Z,3.19
2018-03-17T21:02:43.849Z,3.26
2018-03-17T21:05:11.223Z,3.80
2018-03-17T21:07:38.631Z,3.79
2018-03-17T21:10:06.029Z,3.68
2018-03-17T21:12:33.413Z,3.94
2018-03-17T21:15:00.797Z,3.98
2018-03-17T21:17:28.204Z,3.59
2018-03-17T21:19:55.569Z,3.49
2018-03-17T21:22:22.956Z,3.53
2018-03-17T21:24:50.340Z,3.69
2018-03-17T21:27:17.736Z,3.49
2018-03-17T21:29:45.169Z,3.68
2018-03-17T21:32:12.562Z,3.25
2018-03-17T21:34:39.941Z,3.33
2018-03-17T21:37:07.341Z,3.18
2018-03-17T21:39:34.760Z,3.56
2018-03-17T21:42:02.203Z,3.71
2018-03-17T21:44:29.625Z,3.47
2018-03-17T21:46:57.052Z,3.14
2018-03-17T21:49:24.491Z,3.37
2018-03-17T21:51:51.921Z,3.52
2018-03-17T21:54:19.427Z,3.62
2018-03-17T21:56:46.819Z,3.41
2018-03-17T21:59:14.206Z,3.49
2018-03-17T22:01:41.607Z,3.50
2018-03-17T22:04:09.018Z,3.53
2018-03-17T22:06:36.447Z,3.66
2018-03-17T22:09:03.804Z,3.30
2018-03-17T22:11:31.217Z,3.52
2018-03-17T22:13:58.619Z,3.76
2018-03-17T22:16:26.053Z,3.63
2018-03-17T22:18:53.435Z,3.63
2018-03-17T22:21:20.852Z,3.65
2018-03-17T22:23:49.188Z,3.51
2018-03-17T22:26:16.744Z,3.50
2018-03-17T22:28:44.203Z,3.44
2018-03-17T22:31:11.587Z,3.47
2018-03-17T22:33:38.992Z,3.24
2018-03-17T22:36:06.453Z,3.02
2018-03-17T22:38:33.956Z,3.23
2018-03-17T22:41:01.357Z,3.28
2018-03-17T22:43:28.767Z,3.00
2018-03-17T22:45:57.055Z,2.66
2018-03-17T22:48:24.744Z,2.79
2018-03-17T22:50:52.151Z,3.03
2018-03-17T22:53:24.885Z,3.22
2018-03-17T22:55:52.270Z,2.69
2018-03-17T22:58:19.673Z,2.90
2018-03-17T23:00:47.071Z,2.82
2018-03-17T23:03:14.533Z,2.74
2018-03-17T23:05:41.924Z,3.09
2018-03-17T23:08:09.930Z,2.94
2018-03-17T23:10:37.315Z,2.66
2018-03-17T23:13:04.765Z,2.69
2018-03-17T23:15:32.165Z,2.51
2018-03-17T23:17:59.569Z,2.66
2018-03-17T23:20:26.953Z,2.61
2018-03-17T23:22:54.356Z,2.76
2018-03-17T23:25:21.734Z,2.68
2018-03-17T23:27:49.637Z,2.61
2018-03-17T23:30:17.047Z,2.49
2018-03-17T23:32:44.471Z,2.48
2018-03-17T23:35:11.884Z,2.76
2018-03-17T23:37:39.296Z,2.96
2018-03-17T23:40:06.743Z,2.37
2018-03-17T23:42:34.126Z,2.31
2018-03-17T23:45:01.511Z,2.66
2018-03-17T23:47:28.958Z,2.61
2018-03-17T23:49:56.481Z,2.54
2018-03-17T23:52:23.865Z,2.52
2018-03-17T23:54:51.244Z,2.22
2018-03-17T23:57:23.655Z,2.27
2018-03-17T23:59:55.066Z,2.51
